Time;durP1;ratioP1;P1;durP2;ratioP2;P2;SDS_P1;SDS_P2;PMS_P1;PMS_P2;Temp;Humidity;BMP_temperature;BMP_pressure;BME280_temperature;BME280_humidity;BME280_pressure;Samples;Min_cycle;Max_cycle;Signal;HPM_P1;HPM_P2
2022/01/30 00:00:37;;;;;;;27.63;12.13;;;;;;;-1.22;64.71;98510.84;5015564;28;20116;-79
2022/01/30 00:03:03;;;;;;;26.15;10.63;;;;;;;-1.21;64.49;98507.44;5013450;28;20037;-76
2022/01/30 00:05:30;;;;;;;25.10;11.05;;;;;;;-1.27;64.33;98512.44;5013283;28;20500;-75
2022/01/30 00:07:56;;;;;;;21.73;10.52;;;;;;;-1.33;65.35;98507.25;5031403;28;20047;-75
2022/01/30 00:10:23;;;;;;;25.02;10.25;;;;;;;-1.56;64.73;98472.81;5030299;28;20562;-76
2022/01/30 00:12:53;;;;;;;23.23;10.38;;;;;;;-1.35;64.98;98498.69;5030693;28;20034;-79
2022/01/30 00:15:33;;;;;;;19.35;9.13;;;;;;;-1.40;64.30;98506.25;5012427;28;20052;-76
2022/01/30 00:18:09;;;;;;;21.10;9.80;;;;;;;-1.45;65.11;98502.78;5013416;28;20033;-75
2022/01/30 00:20:36;;;;;;;20.70;9.73;;;;;;;-1.91;64.90;98437.28;5013567;28;20049;-75
2022/01/30 00:23:09;;;;;;;17.17;8.60;;;;;;;-1.71;64.95;98478.47;5013324;28;20025;-78
2022/01/30 00:25:46;;;;;;;21.48;8.65;;;;;;;-1.63;65.44;98491.38;4980306;28;20041;-75
2022/01/30 00:28:14;;;;;;;19.25;8.70;;;;;;;-1.93;64.76;98448.28;5012603;28;20080;-77
2022/01/30 00:30:40;;;;;;;18.85;8.77;;;;;;;-1.76;65.29;98476.66;5029955;28;20432;-78
2022/01/30 00:33:06;;;;;;;18.13;8.32;;;;;;;-1.80;64.94;98467.22;4980064;28;20096;-76
2022/01/30 00:35:33;;;;;;;19.42;8.60;;;;;;;-1.78;65.02;98475.78;4996704;28;20038;-80
2022/01/30 00:38:03;;;;;;;20.42;8.52;;;;;;;-1.76;65.21;98477.50;5013231;28;20101;-77
2022/01/30 00:40:29;;;;;;;17.00;8.55;;;;;;;-1.88;65.30;98447.56;5008467;28;20087;-77
2022/01/30 00:42:55;;;;;;;18.15;8.60;;;;;;;-1.77;65.37;98449.44;4993958;28;20527;-77
2022/01/30 00:45:21;;;;;;;19.50;9.07;;;;;;;-1.74;65.17;98439.31;5015147;28;20041;-78
2022/01/30 00:47:47;;;;;;;18.65;8.02;;;;;;;-1.67;65.23;98456.44;5015771;28;20544;-78
2022/01/30 00:50:13;;;;;;;17.00;8.80;;;;;;;-1.80;65.18;98432.41;5019491;28;20072;-78
2022/01/30 00:52:39;;;;;;;18.88;8.55;;;;;;;-1.71;65.39;98441.91;5004160;28;20556;-76
2022/01/30 00:55:05;;;;;;;15.95;8.25;;;;;;;-1.81;65.12;98407.72;5005579;28;20102;-77
2022/01/30 00:57:31;;;;;;;18.40;7.90;;;;;;;-1.66;65.21;98417.34;5020186;28;20403;-79
2022/01/30 00:59:57;;;;;;;23.70;8.10;;;;;;;-1.52;65.07;98431.19;5001745;28;20091;-80
2022/01/30 01:02:22;;;;;;;16.30;7.40;;;;;;;-1.54;64.82;98417.56;5000619;28;20034;-76
2022/01/30 01:04:48;;;;;;;18.88;7.93;;;;;;;-1.44;65.29;98416.03;5000572;28;20393;-78
2022/01/30 01:07:24;;;;;;;17.75;7.72;;;;;;;-1.37;65.36;98416.97;5016947;28;20075;-76
2022/01/30 01:10:25;;;;;;;17.60;8.57;;;;;;;-1.35;64.89;98405.09;5019700;28;20539;-76
2022/01/30 01:23:31;;;;;;;15.38;8.38;;;;;;;-1.25;65.25;98371.25;5015684;28;20105;-75
2022/01/30 01:25:59;;;;;;;18.33;8.90;;;;;;;-1.33;64.26;98360.06;4999938;28;20044;-78
2022/01/30 01:28:26;;;;;;;18.35;8.55;;;;;;;-1.55;64.44;98351.19;4999764;28;20045;-79
2022/01/30 01:30:53;;;;;;;17.88;8.85;;;;;;;-1.37;65.10;98379.56;5026026;28;20069;-78
2022/01/30 01:33:19;;;;;;;16.58;7.78;;;;;;;-1.43;64.77;98364.16;5033626;28;20062;-77
2022/01/30 01:35:46;;;;;;;16.60;8.40;;;;;;;-1.38;64.55;98384.63;5016460;28;20064;-76
2022/01/30 01:38:14;;;;;;;16.90;8.35;;;;;;;-1.72;64.60;98336.44;5016093;28;20139;-78
2022/01/30 01:40:42;;;;;;;20.38;8.15;;;;;;;-1.37;64.92;98383.81;5000001;28;20500;-76
2022/01/30 01:43:07;;;;;;;18.75;8.38;;;;;;;-1.38;64.53;98367.66;5001197;28;20045;-78
2022/01/30 01:45:39;;;;;;;21.48;10.25;;;;;;;-1.26;65.26;98374.63;5002524;28;20415;-77
2022/01/30 01:48:12;;;;;;;18.40;8.35;;;;;;;-1.33;65.25;98356.66;5016953;28;20041;-77
2022/01/30 01:50:39;;;;;;;16.02;7.68;;;;;;;-1.38;64.93;98343.78;5015518;28;20500;-77
2022/01/30 01:53:10;;;;;;;16.63;8.05;;;;;;;-1.30;64.97;98362.66;5016411;28;20041;-79
2022/01/30 01:55:37;;;;;;;16.95;7.95;;;;;;;-1.27;64.50;98367.81;4999669;28;20087;-80
2022/01/30 01:58:04;;;;;;;17.08;8.70;;;;;;;-1.44;64.65;98349.66;4999668;28;20068;-75
2022/01/30 02:00:41;;;;;;;18.27;7.93;;;;;;;-1.42;65.12;98345.47;4998809;28;20048;-75
2022/01/30 02:03:06;;;;;;;18.00;8.63;;;;;;;-1.55;64.30;98338.44;4998838;28;20109;-79
2022/01/30 02:05:35;;;;;;;19.33;8.77;;;;;;;-1.66;64.56;98322.97;5032832;28;20136;-77
2022/01/30 02:11:07;;;;;;;16.50;8.35;;;;;;;-1.60;64.26;98348.56;4999228;28;20046;-75
2022/01/30 02:27:04;;;;;;;18.42;9.13;;;;;;;-1.44;65.05;98326.69;5015775;28;20131;-74
2022/01/30 02:29:30;;;;;;;18.52;9.07;;;;;;;-1.46;65.35;98314.75;5014959;28;20041;-78
2022/01/30 02:31:58;;;;;;;19.48;8.50;;;;;;;-1.40;64.76;98312.28;5015110;28;20625;-77
2022/01/30 02:34:29;;;;;;;19.13;8.75;;;;;;;-1.52;64.08;98297.66;4998415;28;20060;-79
2022/01/30 02:36:56;;;;;;;17.20;8.33;;;;;;;-1.69;65.20;98275.28;4999202;28;20046;-75
2022/01/30 02:39:22;;;;;;;17.60;9.15;;;;;;;-1.57;64.88;98302.69;4999012;28;20280;-74
2022/01/30 02:41:49;;;;;;;13.60;7.55;;;;;;;-1.72;64.34;98284.59;5019808;28;20045;-74
2022/01/30 02:46:54;;;;;;;17.15;7.55;;;;;;;-1.85;64.66;98275.88;5005333;28;20327;-79
2022/01/30 02:51:58;;;;;;;20.30;8.68;;;;;;;-1.89;64.99;98269.88;4998297;28;20074;-79
2022/01/30 02:54:29;;;;;;;14.50;7.57;;;;;;;-1.85;64.89;98271.63;5014416;28;20052;-73
2022/01/30 02:56:55;;;;;;;16.85;7.60;;;;;;;-1.78;65.01;98272.59;4998253;28;20650;-75
2022/01/30 02:59:22;;;;;;;16.80;7.57;;;;;;;-1.83;65.24;98253.81;4981996;28;20468;-74
2022/01/30 03:01:49;;;;;;;12.77;5.82;;;;;;;-1.80;65.28;98253.00;4997637;28;20525;-77
2022/01/30 03:04:14;;;;;;;12.77;6.65;;;;;;;-1.75;65.18;98249.66;5014248;28;20057;-78
2022/01/30 03:06:40;;;;;;;13.73;6.90;;;;;;;-1.77;65.07;98259.03;5014752;28;20489;-77
2022/01/30 03:09:13;;;;;;;;;;;;;;;-1.77;65.26;98265.81;5014598;28;20048;-74
2022/01/30 03:11:39;;;;;;;14.27;6.97;;;;;;;-1.94;65.11;98246.00;4997926;28;19927;-78
2022/01/30 03:14:06;;;;;;;18.17;8.23;;;;;;;-1.87;64.05;98267.34;4998744;28;20045;-76
2022/01/30 03:16:32;;;;;;;18.17;8.48;;;;;;;-1.97;64.61;98264.63;5001600;28;20041;-76
2022/01/30 03:19:00;;;;;;;11.68;5.93;;;;;;;-2.14;65.13;98230.34;5002630;28;20072;-76
2022/01/30 03:21:26;;;;;;;7.40;3.97;;;;;;;-1.90;64.63;98252.00;5034214;28;20049;-77
2022/01/30 03:23:51;;;;;;;6.78;4.03;;;;;;;-1.97;64.36;98239.13;4997839;28;20030;-78
2022/01/30 03:26:17;;;;;;;9.68;5.13;;;;;;;-1.96;65.05;98242.56;4997293;28;20146;-80
2022/01/30 03:29:07;;;;;;;7.20;3.88;;;;;;;-1.87;65.41;98249.50;5006980;28;20037;-76
2022/01/30 03:31:41;;;;;;;9.77;3.92;;;;;;;-1.94;64.87;98223.03;4997290;28;20124;-78
2022/01/30 03:34:10;;;;;;;6.20;3.75;;;;;;;-1.89;64.94;98241.84;5014043;28;20049;-77
2022/01/30 03:36:43;;;;;;;6.20;3.20;;;;;;;-2.05;64.98;98209.25;5014491;28;20045;-77
2022/01/30 03:39:09;;;;;;;4.85;2.75;;;;;;;-1.97;65.06;98215.34;5014156;28;20096;-77
2022/01/30 03:41:35;;;;;;;4.90;2.80;;;;;;;-1.94;64.41;98219.63;4981188;28;20065;-76
2022/01/30 03:44:04;;;;;;;5.20;3.10;;;;;;;-1.98;64.46;98213.63;4997574;28;20412;-77
2022/01/30 03:46:29;;;;;;;6.60;3.08;;;;;;;-1.99;64.71;98210.22;5013512;28;20033;-76
2022/01/30 03:48:55;;;;;;;5.95;3.30;;;;;;;-2.04;64.63;98214.38;5013304;28;20048;-75
2022/01/30 03:51:26;;;;;;;4.38;2.63;;;;;;;-2.03;64.42;98217.78;5013496;28;20500;-78
2022/01/30 03:53:55;;;;;;;5.47;3.28;;;;;;;-1.97;64.40;98221.28;5014237;28;20045;-77
2022/01/30 03:56:21;;;;;;;5.15;3.00;;;;;;;-2.02;64.66;98201.66;4997812;28;20413;-77
2022/01/30 03:58:47;;;;;;;5.22;2.80;;;;;;;-2.02;64.22;98189.78;4984364;28;20041;-78
2022/01/30 04:01:15;;;;;;;6.15;2.78;;;;;;;-2.00;64.18;98192.34;5030284;28;20155;-75
2022/01/30 04:03:41;;;;;;;5.28;2.65;;;;;;;-2.00;64.42;98194.88;5007873;28;20057;-78
2022/01/30 04:06:09;;;;;;;4.38;2.47;;;;;;;-1.99;64.05;98202.56;5017377;28;20159;-77
2022/01/30 04:08:35;;;;;;;7.03;2.90;;;;;;;-2.14;64.28;98187.00;4998849;28;20049;-79
2022/01/30 04:11:17;;;;;;;7.10;3.30;;;;;;;-1.99;64.42;98194.06;5019257;28;20063;-75
2022/01/30 04:13:56;;;;;;;6.53;2.92;;;;;;;-2.12;64.27;98191.31;5025756;28;20048;-78
2022/01/30 04:16:58;;;;;;;;;;;;;;;-2.52;63.95;98149.03;5019507;28;20065;-77
2022/01/30 04:19:29;;;;;;;6.63;3.00;;;;;;;-2.35;64.22;98168.00;4999452;28;19976;-76
2022/01/30 04:22:09;;;;;;;5.22;3.00;;;;;;;-2.15;64.29;98193.81;4999511;28;20142;-76
2022/01/30 04:25:01;;;;;;;4.72;2.80;;;;;;;-2.18;63.50;98188.66;5014956;28;20591;-79
2022/01/30 04:27:55;;;;;;;3.58;2.22;;;;;;;-2.34;64.25;98166.31;5013009;28;20088;-77
2022/01/30 04:30:30;;;;;;;4.40;3.00;;;;;;;-2.31;64.62;98182.50;5014687;28;20099;-76
2022/01/30 04:33:08;;;;;;;4.78;3.20;;;;;;;-2.38;64.34;98170.47;5012742;28;20461;-78
2022/01/30 04:36:08;;;;;;;6.18;3.30;;;;;;;-2.25;64.66;98178.34;4986945;28;20542;-77
2022/01/30 04:39:27;;;;;;;6.60;3.45;;;;;;;-2.13;64.92;98176.00;5030697;28;20421;-76
2022/01/30 04:57:44;;;;;;;4.60;2.63;;;;;;;-2.10;64.61;98145.44;5001617;28;20034;-76
2022/01/30 05:00:25;;;;;;;4.88;2.60;;;;;;;-2.38;64.71;98085.56;5012581;28;20055;-75
2022/01/30 05:08:21;;;;;;;4.40;2.58;;;;;;;-2.14;63.79;98147.09;5013488;28;20045;-77
2022/01/30 05:11:13;;;;;;;4.90;2.60;;;;;;;-2.23;63.85;98144.41;5028882;28;20056;-78
2022/01/30 05:13:59;;;;;;;4.88;2.80;;;;;;;-2.45;63.97;98102.44;5011934;28;20046;-75
2022/01/30 05:16:54;;;;;;;5.53;2.97;;;;;;;-2.23;64.89;98144.41;4977374;28;20063;-78
2022/01/30 05:19:43;;;;;;;4.50;2.55;;;;;;;-2.43;64.13;98116.06;5021275;28;20049;-77
2022/01/30 05:22:17;;;;;;;3.38;2.30;;;;;;;-2.36;64.45;98140.78;5017903;28;20045;-77
2022/01/30 05:24:53;;;;;;;4.47;2.50;;;;;;;-2.49;64.40;98118.50;5017196;28;20037;-75
2022/01/30 05:27:29;;;;;;;2.72;2.13;;;;;;;-2.40;64.78;98125.44;5015480;28;20049;-76
2022/01/30 05:30:17;;;;;;;3.53;1.92;;;;;;;-2.44;64.49;98119.44;5005164;28;20148;-78
2022/01/30 05:33:04;;;;;;;3.20;2.25;;;;;;;-2.43;64.81;98124.56;5005252;28;20054;-76
2022/01/30 05:35:39;;;;;;;4.25;2.50;;;;;;;-2.54;64.22;98118.44;5014501;28;20045;-77
2022/01/30 05:38:24;;;;;;;4.30;2.38;;;;;;;-2.60;64.56;98119.16;5033201;28;20045;-79
2022/01/30 05:41:05;;;;;;;3.85;2.25;;;;;;;-2.47;64.94;98119.41;5031616;28;20056;-76
2022/01/30 05:44:00;;;;;;;3.75;1.83;;;;;;;-2.46;64.85;98105.81;5028311;28;20041;-77
2022/01/30 05:46:54;;;;;;;3.13;1.80;;;;;;;-2.47;64.63;98099.00;5036042;28;20072;-77
2022/01/30 05:49:27;;;;;;;4.72;2.03;;;;;;;-2.33;64.89;98104.34;5049576;28;20045;-76
2022/01/30 05:52:28;;;;;;;;;;;;;;;-2.25;64.41;98099.34;5010512;28;20041;-76
2022/01/30 05:55:07;;;;;;;3.08;1.30;;;;;;;-2.30;64.72;98106.91;5009119;28;19928;-77
2022/01/30 05:57:33;;;;;;;2.53;1.52;;;;;;;-2.33;64.56;98111.97;5005338;28;20045;-77
2022/01/30 06:00:05;;;;;;;3.60;1.70;;;;;;;-2.30;64.57;98101.81;5004702;28;20069;-75
2022/01/30 06:02:49;;;;;;;3.05;1.83;;;;;;;-2.32;64.52;98108.59;5038769;28;20065;-76
2022/01/30 06:05:17;;;;;;;3.65;1.75;;;;;;;-2.35;64.34;98117.03;5006161;28;20080;-78
2022/01/30 06:07:52;;;;;;;2.92;1.50;;;;;;;-2.38;64.39;98096.59;5021995;28;20037;-74
2022/01/30 06:10:20;;;;;;;3.63;1.92;;;;;;;-2.43;64.74;98104.19;5004377;28;20110;-77
2022/01/30 06:12:46;;;;;;;3.08;1.80;;;;;;;-2.47;64.78;98088.81;5020049;28;20053;-77
2022/01/30 06:15:13;;;;;;;2.80;1.90;;;;;;;-2.34;64.61;98100.06;5019269;28;20529;-76
2022/01/30 06:17:41;;;;;;;4.55;2.00;;;;;;;-2.23;64.73;98077.28;5019091;28;20186;-76
2022/01/30 06:20:16;;;;;;;2.92;1.70;;;;;;;-2.21;64.45;98084.13;5036036;28;20501;-75
2022/01/30 06:23:00;;;;;;;2.00;1.30;;;;;;;-2.18;64.25;98086.72;5032969;28;20475;-76
2022/01/30 06:25:44;;;;;;;1.85;1.50;;;;;;;-2.09;64.30;98088.53;5018022;28;20045;-78
2022/01/30 06:28:16;;;;;;;2.17;1.60;;;;;;;-2.13;64.41;98086.78;5031980;28;20522;-77
2022/01/30 06:31:01;;;;;;;2.40;1.63;;;;;;;-2.05;64.65;98091.97;5032988;28;20412;-76
2022/01/30 06:33:50;;;;;;;2.28;1.65;;;;;;;-2.02;64.64;98084.38;5001704;28;20045;-79
2022/01/30 06:36:15;;;;;;;3.83;1.50;;;;;;;-2.17;64.25;98064.63;5014744;28;20052;-78
2022/01/30 06:38:45;;;;;;;1.90;1.17;;;;;;;-2.17;64.89;98049.31;5000171;28;20482;-76
2022/01/30 06:41:14;;;;;;;2.58;1.50;;;;;;;-1.97;64.65;98070.00;5015276;28;20045;-77
2022/01/30 06:44:07;;;;;;;3.00;1.50;;;;;;;-2.02;63.50;98076.72;5000108;28;20530;-76
2022/01/30 06:46:52;;;;;;;3.55;2.03;;;;;;;-2.08;63.93;98081.72;5033512;28;20076;-77
2022/01/30 06:49:43;;;;;;;3.20;1.75;;;;;;;-2.13;64.26;98068.94;5033159;28;20041;-75
2022/01/30 06:52:17;;;;;;;1.80;1.23;;;;;;;-1.93;64.06;98086.19;5016234;28;20048;-77
2022/01/30 06:54:51;;;;;;;2.88;1.60;;;;;;;-2.15;64.48;98040.00;5016988;28;20111;-75
2022/01/30 06:57:42;;;;;;;2.33;1.45;;;;;;;-1.96;64.25;98074.28;5018303;28;20044;-77
2022/01/30 07:00:26;;;;;;;2.05;1.17;;;;;;;-1.86;64.08;98076.09;5032701;28;20418;-78
2022/01/30 07:03:11;;;;;;;2.72;1.40;;;;;;;-2.00;64.04;98049.56;5019633;28;20033;-76
2022/01/30 07:05:47;;;;;;;1.75;1.30;;;;;;;-1.88;64.40;98075.25;5018530;28;20048;-77
2022/01/30 07:08:22;;;;;;;2.90;1.52;;;;;;;-1.86;64.25;98081.19;5017521;28;20049;-78
2022/01/30 07:10:48;;;;;;;2.05;1.35;;;;;;;-1.96;64.21;98061.53;4997672;28;20033;-76
2022/01/30 07:13:13;;;;;;;3.20;1.63;;;;;;;-1.86;64.11;98088.84;4997631;28;20041;-77
2022/01/30 07:15:41;;;;;;;2.00;1.20;;;;;;;-1.84;64.28;98076.13;4999304;28;20045;-77
2022/01/30 07:18:07;;;;;;;2.25;1.30;;;;;;;-1.98;63.40;98053.00;5034708;28;20071;-77
2022/01/30 07:20:33;;;;;;;1.17;1.08;;;;;;;-1.92;63.80;98072.63;5007664;28;20128;-75
2022/01/30 07:23:05;;;;;;;2.30;1.25;;;;;;;-2.13;63.07;98041.75;5030002;28;20037;-75
2022/01/30 07:25:31;;;;;;;1.98;1.25;;;;;;;-2.24;63.61;98025.44;5019532;28;20124;-80
2022/01/30 07:27:57;;;;;;;2.17;1.10;;;;;;;-2.03;64.04;98045.28;4984148;28;20092;-78
2022/01/30 07:30:22;;;;;;;1.75;1.45;;;;;;;-1.84;64.43;98056.56;4999280;28;20065;-76
2022/01/30 07:32:48;;;;;;;2.53;1.55;;;;;;;-1.95;63.70;98042.84;4999233;28;20037;-81
2022/01/30 07:35:14;;;;;;;2.10;1.42;;;;;;;-2.15;63.99;98027.28;4999403;28;20075;-77
2022/01/30 07:37:46;;;;;;;3.17;1.25;;;;;;;-1.95;63.67;98065.78;5015449;28;20072;-75
2022/01/30 07:40:13;;;;;;;2.65;1.60;;;;;;;-1.98;64.22;98053.00;4999323;28;20045;-79
2022/01/30 07:42:39;;;;;;;2.90;1.50;;;;;;;-2.88;63.99;97888.72;4998831;28;20045;-77
2022/01/30 07:45:08;;;;;;;3.45;1.60;;;;;;;-1.66;63.55;98070.41;5015615;28;20111;-77
2022/01/30 07:47:39;;;;;;;1.73;1.30;;;;;;;-2.19;63.79;97982.19;5032495;28;20041;-81
2022/01/30 07:50:05;;;;;;;1.75;1.27;;;;;;;-1.89;63.34;98021.66;5014078;28;20068;-79
2022/01/30 07:52:31;;;;;;;2.97;1.75;;;;;;;-2.44;63.60;97934.31;5014887;28;20041;-76
2022/01/30 07:55:09;;;;;;;3.05;1.73;;;;;;;-1.63;63.79;98059.38;4982373;28;20099;-79
2022/01/30 07:57:55;;;;;;;2.75;1.30;;;;;;;-2.65;63.24;97886.50;4982779;28;20086;-77
2022/01/30 08:00:21;;;;;;;2.47;1.55;;;;;;;-1.83;63.21;98012.38;5003543;28;20088;-77
2022/01/30 08:02:50;;;;;;;1.92;1.20;;;;;;;-1.68;62.97;98024.47;5038381;28;20672;-74
2022/01/30 08:05:19;;;;;;;3.05;1.80;;;;;;;-1.42;63.29;98040.91;5018835;28;20045;-77
2022/01/30 08:07:44;;;;;;;3.58;1.30;;;;;;;-1.59;63.19;98023.72;5015703;28;20131;-81
2022/01/30 08:10:10;;;;;;;2.63;1.52;;;;;;;-1.97;62.47;97983.31;5017384;28;20041;-81
2022/01/30 08:13:17;;;;;;;2.35;1.30;;;;;;;-2.21;62.59;97959.25;5032280;28;20037;-79
2022/01/30 08:15:45;;;;;;;2.45;1.40;;;;;;;-2.17;62.94;98000.91;4970947;28;20054;-80
2022/01/30 08:18:18;;;;;;;2.53;1.15;;;;;;;-2.80;62.59;97915.16;5000305;28;20033;-82
2022/01/30 08:21:13;;;;;;;1.90;1.13;;;;;;;-2.82;63.35;97900.66;4999082;28;20397;-77
2022/01/30 08:23:59;;;;;;;1.55;0.95;;;;;;;-2.31;62.53;97987.97;5013903;28;20491;-77
2022/01/30 08:26:39;;;;;;;;;;;;;;;;;;;;;
2022/01/30 08:29:43;;;;;;;1.63;1.10;;;;;;;-2.63;62.68;97960.38;5020869;28;20037;-78
2022/01/30 08:33:25;;;;;;;2.45;1.23;;;;;;;-3.12;62.69;97841.72;4934869;29;20127;-79
2022/01/30 08:36:26;;;;;;;1.35;0.88;;;;;;;-2.04;62.93;98028.28;4938187;29;20051;-79
2022/01/30 08:38:53;;;;;;;1.08;0.80;;;;;;;-1.78;62.52;98054.94;4972944;28;20046;-77
2022/01/30 08:41:18;;;;;;;1.23;0.70;;;;;;;-1.74;62.03;98051.59;4955250;28;20085;-80
2022/01/30 08:43:45;;;;;;;1.00;0.70;;;;;;;-1.75;61.78;98049.88;4956058;28;20077;-81
2022/01/30 08:46:17;;;;;;;1.17;1.00;;;;;;;-1.95;62.11;98014.78;4955212;28;20043;-81
2022/01/30 08:48:43;;;;;;;0.95;0.82;;;;;;;-2.08;62.11;97995.94;4977596;28;20054;-82
2022/01/30 08:51:09;;;;;;;1.27;0.80;;;;;;;-1.83;61.76;98042.16;5032406;28;20053;-79
2022/01/30 08:56:31;;;;;;;1.20;0.70;;;;;;;-1.87;62.54;98009.78;5031821;28;20038;-77
2022/01/30 08:58:57;;;;;;;1.50;0.90;;;;;;;-2.23;62.05;97949.88;5015243;28;20045;-79
2022/01/30 09:01:24;;;;;;;1.50;0.73;;;;;;;-1.88;61.57;98003.84;5041301;28;20041;-80
2022/01/30 09:03:53;;;;;;;1.38;0.98;;;;;;;-1.94;61.72;98008.88;5026939;28;20041;-80
2022/01/30 09:06:19;;;;;;;1.27;0.80;;;;;;;-2.02;61.49;98026.63;5001101;28;20088;-81
2022/01/30 09:08:45;;;;;;;1.65;0.88;;;;;;;-2.08;61.06;98026.53;5017195;28;20544;-83
2022/01/30 09:11:10;;;;;;;1.38;0.90;;;;;;;-2.29;61.05;98006.69;5016490;28;20033;-82
2022/01/30 09:13:48;;;;;;;1.30;0.88;;;;;;;-2.36;62.05;97981.97;5017682;28;20519;-80
2022/01/30 09:16:15;;;;;;;1.27;0.82;;;;;;;-2.16;62.05;98013.69;5044381;28;20041;-78
2022/01/30 09:18:41;;;;;;;1.85;1.00;;;;;;;-2.03;62.04;98040.19;5019459;28;20451;-77
2022/01/30 09:21:08;;;;;;;1.42;0.90;;;;;;;-2.16;62.01;98023.00;5034613;28;20038;-79
2022/01/30 09:23:33;;;;;;;0.90;0.70;;;;;;;-2.13;61.89;98034.13;5034319;28;20505;-77
2022/01/30 09:25:59;;;;;;;0.73;0.68;;;;;;;-2.22;62.01;98026.34;5014601;28;20061;-77
2022/01/30 09:28:25;;;;;;;0.98;0.63;;;;;;;-2.10;61.88;98053.69;4998337;28;20045;-77
2022/01/30 09:30:50;;;;;;;1.85;0.98;;;;;;;-2.15;62.23;97999.22;5014693;28;20045;-78
2022/01/30 09:33:16;;;;;;;1.73;0.90;;;;;;;-1.97;61.32;98014.75;4981983;28;20129;-80
2022/01/30 09:35:42;;;;;;;0.98;0.82;;;;;;;-1.74;61.41;98018.44;4998506;28;20173;-80
2022/01/30 09:38:08;;;;;;;3.45;1.60;;;;;;;-1.55;62.27;98004.22;4998552;28;20064;-79
2022/01/30 09:40:34;;;;;;;3.08;1.58;;;;;;;-1.28;62.64;97995.97;4998904;28;20037;-79
2022/01/30 09:43:01;;;;;;;1.98;1.23;;;;;;;-0.99;61.88;97997.09;4981723;28;20473;-77
2022/01/30 09:45:28;;;;;;;1.83;1.45;;;;;;;-0.78;61.59;97981.09;5016044;28;20068;-78
2022/01/30 09:47:56;;;;;;;1.95;1.35;;;;;;;-0.70;61.16;97951.31;4982968;28;20042;-81
2022/01/30 09:50:25;;;;;;;3.58;1.70;;;;;;;-0.22;60.83;97945.63;4985254;28;20100;-79
2022/01/30 09:52:50;;;;;;;1.20;0.90;;;;;;;-0.01;59.28;97938.06;5002350;28;20042;-80
2022/01/30 09:55:16;;;;;;;1.02;0.90;;;;;;;1.05;60.92;97930.53;5003527;28;20073;-80
2022/01/30 09:57:47;;;;;;;1.55;1.13;;;;;;;1.29;58.51;97906.63;4985399;28;20509;-79
2022/01/30 10:00:14;;;;;;;1.63;1.00;;;;;;;1.74;58.94;97880.00;4985773;28;20071;-77
2022/01/30 10:02:42;;;;;;;1.90;1.17;;;;;;;2.37;57.43;97841.16;4983282;28;20037;-80
2022/01/30 10:05:10;;;;;;;2.10;1.20;;;;;;;4.10;56.98;97932.84;4981260;28;20506;-78
2022/01/30 10:07:55;;;;;;;2.25;1.60;;;;;;;4.35;55.19;97847.56;4996922;28;20144;-79
2022/01/30 10:10:27;;;;;;;1.40;1.10;;;;;;;5.32;54.25;97921.59;4963930;28;20089;-79
2022/01/30 10:13:07;;;;;;;1.20;1.10;;;;;;;6.15;54.21;97921.78;4992972;28;20064;-78
2022/01/30 10:15:55;;;;;;;1.92;1.15;;;;;;;7.26;52.88;97902.00;4977647;28;20193;-80
2022/01/30 10:18:32;;;;;;;1.63;1.40;;;;;;;7.25;51.08;97880.47;4997823;28;20058;-79
2022/01/30 10:21:00;;;;;;;1.60;1.20;;;;;;;6.36;48.86;97910.16;4995837;28;20049;-79
2022/01/30 10:23:45;;;;;;;1.75;1.20;;;;;;;5.18;49.34;97911.56;5013071;28;20041;-78
2022/01/30 10:26:29;;;;;;;1.98;1.30;;;;;;;4.10;49.73;97888.25;4998913;28;20148;-79
2022/01/30 10:29:53;;;;;;;;;;;;;;;;;;;;;
2022/01/30 10:32:24;;;;;;;2.17;1.13;;;;;;;2.55;50.28;97888.97;4998204;28;20041;-79
2022/01/30 10:34:59;;;;;;;1.50;1.27;;;;;;;2.08;50.17;97867.00;4997959;28;21058;-79
2022/01/30 10:37:24;;;;;;;1.75;1.30;;;;;;;1.41;49.91;97845.91;5015140;28;20049;-78
2022/01/30 10:40:27;;;;;;;2.35;1.80;;;;;;;0.95;50.19;97827.25;5018842;28;20046;-79
2022/01/30 10:42:55;;;;;;;1.70;1.33;;;;;;;1.14;51.19;97887.00;4994338;28;20094;-78
2022/01/30 10:45:32;;;;;;;2.17;1.60;;;;;;;1.35;51.65;97900.63;4984580;28;20046;-78
2022/01/30 10:48:10;;;;;;;2.92;1.80;;;;;;;1.25;51.21;97911.72;4995656;28;20049;-77
2022/01/30 10:50:42;;;;;;;4.20;1.88;;;;;;;1.09;52.34;97888.72;4963729;28;20045;-79
2022/01/30 10:53:20;;;;;;;1.63;1.30;;;;;;;0.76;51.12;97885.34;4964335;28;20049;-80
2022/01/30 10:55:48;;;;;;;4.07;1.70;;;;;;;0.92;51.64;97909.19;5023586;28;20072;-80
2022/01/30 10:58:16;;;;;;;5.07;2.40;;;;;;;0.92;52.01;97903.25;4964089;28;20041;-78
2022/01/30 11:00:45;;;;;;;3.28;1.92;;;;;;;0.62;52.50;97880.19;4964290;28;20061;-79
2022/01/30 11:03:41;;;;;;;1.88;1.52;;;;;;;0.73;51.92;97895.56;5013726;28;20409;-80
2022/01/30 11:06:12;;;;;;;2.08;1.00;;;;;;;0.44;51.62;97871.63;4998779;28;20038;-81
2022/01/30 11:08:41;;;;;;;2.92;1.50;;;;;;;0.33;52.18;97864.81;4983656;28;20045;-79
2022/01/30 11:14:13;;;;;;;2.85;1.67;;;;;;;0.63;52.65;97861.44;4998653;28;20042;-79
2022/01/30 11:17:02;;;;;;;5.88;3.08;;;;;;;0.67;53.09;97868.22;4963382;28;20048;-78
2022/01/30 11:19:32;;;;;;;1.98;1.23;;;;;;;0.28;52.06;97834.09;4981266;28;20045;-81
2022/01/30 11:22:14;;;;;;;2.20;1.30;;;;;;;0.18;52.29;97868.22;5014034;28;20444;-78
2022/01/30 11:25:01;;;;;;;1.80;1.33;;;;;;;-0.38;52.91;97797.31;4983448;28;20036;-78
2022/01/30 11:27:27;;;;;;;2.83;1.35;;;;;;;0.02;53.06;97854.53;5000201;28;20136;-79
2022/01/30 11:29:53;;;;;;;1.90;1.20;;;;;;;0.11;53.48;97868.19;5015186;28;20068;-79
2022/01/30 11:32:23;;;;;;;1.55;1.23;;;;;;;-0.01;53.49;97857.94;4997524;28;20038;-79
2022/01/30 11:34:53;;;;;;;1.75;1.13;;;;;;;-0.09;54.18;97857.06;4999763;28;20061;-77
2022/01/30 11:37:19;;;;;;;2.63;1.40;;;;;;;-0.12;52.94;97850.25;4997440;28;20048;-78
2022/01/30 11:39:47;;;;;;;1.90;1.20;;;;;;;-0.21;53.13;97863.81;4982745;28;20408;-77
2022/01/30 11:42:35;;;;;;;1.85;1.05;;;;;;;-0.32;53.45;97876.56;4997219;28;20037;-80
2022/01/30 11:45:08;;;;;;;2.10;1.60;;;;;;;-0.51;53.42;97839.00;4980956;28;20510;-79
2022/01/30 11:47:48;;;;;;;1.17;0.77;;;;;;;-0.48;53.93;97857.78;5014301;28;20079;-78
2022/01/30 11:50:25;;;;;;;1.73;1.48;;;;;;;-0.47;54.08;97854.38;5014364;28;20060;-80
2022/01/30 11:53:00;;;;;;;3.03;1.70;;;;;;;-0.48;55.35;97859.47;4980602;28;20195;-77
2022/01/30 11:55:57;;;;;;;3.60;2.28;;;;;;;-0.39;55.42;97853.53;4979659;28;20042;-78
2022/01/30 11:58:34;;;;;;;2.33;1.35;;;;;;;-0.41;54.16;97842.44;4964382;28;20780;-79
2022/01/30 12:01:05;;;;;;;2.53;1.55;;;;;;;-0.66;54.91;97816.81;4995241;28;20060;-78
2022/01/30 12:03:36;;;;;;;3.15;1.75;;;;;;;-0.43;55.88;97849.25;5012196;28;20041;-78
2022/01/30 12:06:20;;;;;;;3.33;1.90;;;;;;;-0.42;55.14;97835.63;4995903;28;20421;-78
2022/01/30 12:08:55;;;;;;;1.95;1.55;;;;;;;-0.59;54.35;97843.25;5013300;28;20509;-79
2022/01/30 12:11:47;;;;;;;3.97;1.63;;;;;;;-0.63;55.61;97834.69;5002073;28;20532;-78
2022/01/30 12:14:19;;;;;;;2.78;1.90;;;;;;;-0.55;55.72;97835.59;4997684;28;20042;-78
2022/01/30 12:16:46;;;;;;;;;;;;;;;-0.69;55.88;97857.69;4983020;28;20046;-78
2022/01/30 12:19:16;;;;;;;3.67;1.88;;;;;;;-0.77;56.29;97826.97;5004575;28;19932;-80
2022/01/30 12:21:43;;;;;;;3.33;2.08;;;;;;;-0.67;55.96;97840.66;4999797;28;20048;-78
2022/01/30 12:24:28;;;;;;;4.28;2.38;;;;;;;-1.09;55.66;97794.47;5000916;28;20047;-77
2022/01/30 12:27:00;;;;;;;6.72;3.10;;;;;;;-1.03;55.66;97824.28;4983504;28;20184;-79
2022/01/30 12:29:40;;;;;;;4.38;2.55;;;;;;;-1.12;55.93;97827.63;4984203;28;20048;-78
2022/01/30 12:32:22;;;;;;;9.30;3.30;;;;;;;-1.14;57.34;97834.41;5000115;28;20397;-77
2022/01/30 12:34:57;;;;;;;16.67;4.60;;;;;;;-1.08;56.85;97842.13;4998262;28;20050;-78
2022/01/30 12:37:24;;;;;;;3.80;2.13;;;;;;;-1.21;56.75;97834.38;4996060;28;20046;-79
2022/01/30 12:39:50;;;;;;;8.13;2.60;;;;;;;-1.27;57.18;97815.59;4994686;28;20042;-79
2022/01/30 12:42:17;;;;;;;7.93;3.35;;;;;;;-1.41;57.35;97818.94;5012858;28;20117;-77
2022/01/30 12:44:44;;;;;;;9.52;3.35;;;;;;;-1.19;57.73;97848.84;5012763;28;20033;-80
2022/01/30 12:47:14;;;;;;;22.88;5.97;;;;;;;-1.22;57.61;97836.91;4995019;28;20042;-81
2022/01/30 12:49:52;;;;;;;13.80;5.45;;;;;;;-1.27;57.93;97836.03;4999178;28;20042;-79
2022/01/30 12:54:57;;;;;;;6.80;3.15;;;;;;;-1.36;57.75;97847.03;4999720;28;20049;-79
2022/01/30 12:57:26;;;;;;;8.55;3.40;;;;;;;-1.42;58.07;97818.91;5000197;28;20075;-78
2022/01/30 12:59:56;;;;;;;8.93;3.33;;;;;;;-1.36;58.34;97834.25;4999064;28;20441;-80
2022/01/30 13:02:24;;;;;;;7.03;2.92;;;;;;;-1.31;58.96;97827.50;4983094;28;20118;-77
2022/01/30 13:05:08;;;;;;;9.63;3.13;;;;;;;-1.29;58.09;97807.97;5000804;28;20065;-77
2022/01/30 13:07:35;;;;;;;6.25;2.65;;;;;;;-1.37;57.61;97817.25;4984705;28;20101;-79